Weather at Soroka Medical Center Heliport

Public forecast

Using degrees Celsius for public forecast. Weather courtesy of forecast.io.

Closest aviation weather report (METAR) to Soroka Medical Center Heliport

Closest report is Ben Gurion International Airport, 45.4 nm (84.0 km) N.

2024/05/30 12:20 (retrieved 11 minutes ago)

LLBG 301220Z 28012KT 9999 FEW035 26/15 Q1013 NOSIG

Closest aviation forecast (TAF) to Soroka Medical Center Heliport

Forecast is more than 12 hours old.

Closest forecast is El Jora Airport, 35.0 nm (64.8 km) WSW.

2024/05/28 18:00 (retrieved 2 days ago)

TAF HEGR 281700Z 2818/2924 34008KT 9999 SCT025